sensor_id;sensor_type;location;lat;lon;timestamp;temperature;humidity
27896;DHT22;15241;48.374;10.876;2022-12-26T00:00:17;10.60;99.90
27896;DHT22;15241;48.374;10.876;2022-12-26T00:05:16;10.70;99.90
27896;DHT22;15241;48.374;10.876;2022-12-26T00:10:15;10.70;99.90
27896;DHT22;15241;48.374;10.876;2022-12-26T00:15:14;10.80;99.90
27896;DHT22;15241;48.374;10.876;2022-12-26T00:20:13;10.80;99.90
27896;DHT22;15241;48.374;10.876;2022-12-26T00:25:12;10.90;99.90
27896;DHT22;15241;48.374;10.876;2022-12-26T00:30:13;10.90;99.90
27896;DHT22;15241;48.374;10.876;2022-12-26T00:35:12;10.80;99.90
27896;DHT22;15241;48.374;10.876;2022-12-26T00:40:12;10.70;99.90
27896;DHT22;15241;48.374;10.876;2022-12-26T00:45:11;10.60;99.90
27896;DHT22;15241;48.374;10.876;2022-12-26T00:50:10;10.60;99.90
27896;DHT22;15241;48.374;10.876;2022-12-26T00:55:11;10.50;99.90
27896;DHT22;15241;48.374;10.876;2022-12-26T01:00:12;10.40;99.90
27896;DHT22;15241;48.374;10.876;2022-12-26T01:05:11;10.40;99.90
27896;DHT22;15241;48.374;10.876;2022-12-26T01:10:12;10.20;99.90
27896;DHT22;15241;48.374;10.876;2022-12-26T01:15:11;10.20;99.90
27896;DHT22;15241;48.374;10.876;2022-12-26T01:20:11;10.10;99.90
27896;DHT22;15241;48.374;10.876;2022-12-26T01:25:10;10.00;99.90
27896;DHT22;15241;48.374;10.876;2022-12-26T01:30:11;9.80;99.90
27896;DHT22;15241;48.374;10.876;2022-12-26T01:35:10;9.80;99.90
27896;DHT22;15241;48.374;10.876;2022-12-26T01:40:11;9.60;99.90
27896;DHT22;15241;48.374;10.876;2022-12-26T01:45:24;9.50;99.90
27896;DHT22;15241;48.374;10.876;2022-12-26T01:50:38;9.40;99.90
27896;DHT22;15241;48.374;10.876;2022-12-26T01:55:37;9.30;99.90
27896;DHT22;15241;48.374;10.876;2022-12-26T02:00:37;9.20;99.90
27896;DHT22;15241;48.374;10.876;2022-12-26T02:05:36;9.10;99.90
27896;DHT22;15241;48.374;10.876;2022-12-26T02:10:38;9.10;99.90
27896;DHT22;15241;48.374;10.876;2022-12-26T02:15:39;8.90;99.90
27896;DHT22;15241;48.374;10.876;2022-12-26T02:20:42;8.80;99.90
27896;DHT22;15241;48.374;10.876;2022-12-26T02:25:56;8.80;99.90
27896;DHT22;15241;48.374;10.876;2022-12-26T02:30:56;8.70;99.90
27896;DHT22;15241;48.374;10.876;2022-12-26T02:36:07;8.70;99.90
27896;DHT22;15241;48.374;10.876;2022-12-26T02:41:14;8.60;99.90
27896;DHT22;15241;48.374;10.876;2022-12-26T02:46:17;8.70;99.90
27896;DHT22;15241;48.374;10.876;2022-12-26T02:51:22;8.60;99.90
27896;DHT22;15241;48.374;10.876;2022-12-26T02:56:23;8.60;99.90
27896;DHT22;15241;48.374;10.876;2022-12-26T03:06:32;8.60;99.90
27896;DHT22;15241;48.374;10.876;2022-12-26T03:11:35;8.60;99.90
27896;DHT22;15241;48.374;10.876;2022-12-26T03:16:34;8.60;99.90
27896;DHT22;15241;48.374;10.876;2022-12-26T03:21:35;8.70;99.90
27896;DHT22;15241;48.374;10.876;2022-12-26T03:26:37;8.70;99.90
27896;DHT22;15241;48.374;10.876;2022-12-26T03:31:38;8.60;99.90
27896;DHT22;15241;48.374;10.876;2022-12-26T03:36:40;8.70;99.90
27896;DHT22;15241;48.374;10.876;2022-12-26T03:46:57;8.70;99.90
27896;DHT22;15241;48.374;10.876;2022-12-26T03:51:58;8.70;99.90
27896;DHT22;15241;48.374;10.876;2022-12-26T03:57:03;8.70;99.90
27896;DHT22;15241;48.374;10.876;2022-12-26T04:02:03;8.70;99.90
27896;DHT22;15241;48.374;10.876;2022-12-26T04:07:07;8.60;99.90
27896;DHT22;15241;48.374;10.876;2022-12-26T04:12:08;8.60;99.90
27896;DHT22;15241;48.374;10.876;2022-12-26T04:17:13;8.60;99.90
27896;DHT22;15241;48.374;10.876;2022-12-26T04:22:13;8.60;99.90
27896;DHT22;15241;48.374;10.876;2022-12-26T04:27:15;8.70;99.90
27896;DHT22;15241;48.374;10.876;2022-12-26T04:32:18;8.70;99.90
27896;DHT22;15241;48.374;10.876;2022-12-26T04:37:20;8.80;99.90
27896;DHT22;15241;48.374;10.876;2022-12-26T04:42:21;8.90;99.90
27896;DHT22;15241;48.374;10.876;2022-12-26T04:47:21;9.10;99.90
27896;DHT22;15241;48.374;10.876;2022-12-26T04:52:20;9.20;99.90
27896;DHT22;15241;48.374;10.876;2022-12-26T04:57:20;9.30;99.90
27896;DHT22;15241;48.374;10.876;2022-12-26T05:02:18;9.40;99.90
27896;DHT22;15241;48.374;10.876;2022-12-26T05:07:20;9.60;99.90
27896;DHT22;15241;48.374;10.876;2022-12-26T05:12:19;9.60;99.90
27896;DHT22;15241;48.374;10.876;2022-12-26T05:17:19;9.80;99.90
27896;DHT22;15241;48.374;10.876;2022-12-26T05:22:17;9.90;99.90
27896;DHT22;15241;48.374;10.876;2022-12-26T05:27:17;10.00;99.90
27896;DHT22;15241;48.374;10.876;2022-12-26T05:32:16;10.10;99.90
27896;DHT22;15241;48.374;10.876;2022-12-26T05:37:15;10.20;99.90
27896;DHT22;15241;48.374;10.876;2022-12-26T05:42:14;10.20;99.90
27896;DHT22;15241;48.374;10.876;2022-12-26T05:47:13;10.30;99.90
27896;DHT22;15241;48.374;10.876;2022-12-26T05:52:12;10.30;99.90
27896;DHT22;15241;48.374;10.876;2022-12-26T06:02:18;10.40;99.90
27896;DHT22;15241;48.374;10.876;2022-12-26T06:07:17;10.40;99.90
27896;DHT22;15241;48.374;10.876;2022-12-26T06:12:16;10.40;99.90
27896;DHT22;15241;48.374;10.876;2022-12-26T06:17:14;10.50;99.90
27896;DHT22;15241;48.374;10.876;2022-12-26T06:22:13;10.50;99.90
27896;DHT22;15241;48.374;10.876;2022-12-26T06:27:12;10.50;99.90
27896;DHT22;15241;48.374;10.876;2022-12-26T06:32:11;10.60;99.90
27896;DHT22;15241;48.374;10.876;2022-12-26T06:37:10;10.60;99.90
27896;DHT22;15241;48.374;10.876;2022-12-26T06:42:09;10.60;99.90
27896;DHT22;15241;48.374;10.876;2022-12-26T06:47:08;10.60;99.90
27896;DHT22;15241;48.374;10.876;2022-12-26T06:52:07;10.60;99.90
27896;DHT22;15241;48.374;10.876;2022-12-26T06:57:06;10.50;99.90
27896;DHT22;15241;48.374;10.876;2022-12-26T07:02:05;10.50;99.90
27896;DHT22;15241;48.374;10.876;2022-12-26T07:07:03;10.50;99.90
27896;DHT22;15241;48.374;10.876;2022-12-26T07:12:03;10.40;99.90
27896;DHT22;15241;48.374;10.876;2022-12-26T07:17:02;10.40;99.90
27896;DHT22;15241;48.374;10.876;2022-12-26T07:22:01;10.50;99.90
27896;DHT22;15241;48.374;10.876;2022-12-26T07:26:59;10.50;99.90
27896;DHT22;15241;48.374;10.876;2022-12-26T07:31:58;10.60;99.90
27896;DHT22;15241;48.374;10.876;2022-12-26T07:36:57;10.70;99.90
27896;DHT22;15241;48.374;10.876;2022-12-26T07:41:56;10.80;99.90
27896;DHT22;15241;48.374;10.876;2022-12-26T07:46:55;10.80;99.90
27896;DHT22;15241;48.374;10.876;2022-12-26T07:51:54;10.90;99.90
27896;DHT22;15241;48.374;10.876;2022-12-26T07:56:53;11.00;99.90
27896;DHT22;15241;48.374;10.876;2022-12-26T08:01:52;11.10;99.90
27896;DHT22;15241;48.374;10.876;2022-12-26T08:06:51;11.10;99.90
27896;DHT22;15241;48.374;10.876;2022-12-26T08:11:50;11.20;99.90
27896;DHT22;15241;48.374;10.876;2022-12-26T08:16:49;11.20;99.90
27896;DHT22;15241;48.374;10.876;2022-12-26T08:21:48;11.20;99.90
27896;DHT22;15241;48.374;10.876;2022-12-26T08:26:47;11.40;99.90
27896;DHT22;15241;48.374;10.876;2022-12-26T08:31:45;11.30;99.90
27896;DHT22;15241;48.374;10.876;2022-12-26T08:36:44;11.40;99.90
27896;DHT22;15241;48.374;10.876;2022-12-26T08:41:45;11.50;99.90
27896;DHT22;15241;48.374;10.876;2022-12-26T08:46:44;11.60;99.90
27896;DHT22;15241;48.374;10.876;2022-12-26T08:51:43;11.70;99.90
27896;DHT22;15241;48.374;10.876;2022-12-26T08:56:42;11.80;99.90
27896;DHT22;15241;48.374;10.876;2022-12-26T09:01:41;12.00;99.90
27896;DHT22;15241;48.374;10.876;2022-12-26T09:06:40;12.10;99.90
27896;DHT22;15241;48.374;10.876;2022-12-26T09:11:39;12.20;99.90
27896;DHT22;15241;48.374;10.876;2022-12-26T09:16:40;12.40;99.90
27896;DHT22;15241;48.374;10.876;2022-12-26T09:21:40;12.50;99.90
27896;DHT22;15241;48.374;10.876;2022-12-26T09:26:39;12.50;99.90
27896;DHT22;15241;48.374;10.876;2022-12-26T09:31:38;12.50;99.90
27896;DHT22;15241;48.374;10.876;2022-12-26T09:36:38;12.70;99.90
27896;DHT22;15241;48.374;10.876;2022-12-26T09:47:16;12.90;99.90
27896;DHT22;15241;48.374;10.876;2022-12-26T09:52:18;13.10;99.90
27896;DHT22;15241;48.374;10.876;2022-12-26T09:57:20;13.30;99.90
27896;DHT22;15241;48.374;10.876;2022-12-26T10:02:22;13.40;99.90
27896;DHT22;15241;48.374;10.876;2022-12-26T10:12:39;13.70;99.90
27896;DHT22;15241;48.374;10.876;2022-12-26T10:17:41;13.80;99.90
27896;DHT22;15241;48.374;10.876;2022-12-26T10:22:55;13.80;99.90
27896;DHT22;15241;48.374;10.876;2022-12-26T10:27:54;13.90;99.90
27896;DHT22;15241;48.374;10.876;2022-12-26T10:32:55;14.00;99.90
27896;DHT22;15241;48.374;10.876;2022-12-26T10:37:57;13.90;99.90
27896;DHT22;15241;48.374;10.876;2022-12-26T10:43:01;13.80;99.90
27896;DHT22;15241;48.374;10.876;2022-12-26T10:47:59;13.70;99.90
27896;DHT22;15241;48.374;10.876;2022-12-26T10:53:02;13.70;99.90
27896;DHT22;15241;48.374;10.876;2022-12-26T10:58:02;13.70;99.90
27896;DHT22;15241;48.374;10.876;2022-12-26T11:03:04;13.60;99.90
27896;DHT22;15241;48.374;10.876;2022-12-26T11:08:14;13.40;99.90
27896;DHT22;15241;48.374;10.876;2022-12-26T11:13:17;13.20;99.90
27896;DHT22;15241;48.374;10.876;2022-12-26T11:18:21;13.10;99.90
27896;DHT22;15241;48.374;10.876;2022-12-26T11:23:25;12.80;99.90
27896;DHT22;15241;48.374;10.876;2022-12-26T11:28:28;12.70;99.90
27896;DHT22;15241;48.374;10.876;2022-12-26T11:33:30;12.60;99.90
27896;DHT22;15241;48.374;10.876;2022-12-26T11:38:31;12.40;99.90
27896;DHT22;15241;48.374;10.876;2022-12-26T11:43:31;12.40;99.90
27896;DHT22;15241;48.374;10.876;2022-12-26T11:48:30;12.30;99.90
27896;DHT22;15241;48.374;10.876;2022-12-26T11:53:29;12.20;99.90
27896;DHT22;15241;48.374;10.876;2022-12-26T11:58:30;12.20;99.90
27896;DHT22;15241;48.374;10.876;2022-12-26T12:03:31;12.20;99.90
27896;DHT22;15241;48.374;10.876;2022-12-26T12:08:36;12.20;99.90
27896;DHT22;15241;48.374;10.876;2022-12-26T12:13:48;12.20;99.90
27896;DHT22;15241;48.374;10.876;2022-12-26T12:18:53;12.20;99.90
27896;DHT22;15241;48.374;10.876;2022-12-26T12:24:21;12.20;99.90
27896;DHT22;15241;48.374;10.876;2022-12-26T12:29:27;12.10;99.90
27896;DHT22;15241;48.374;10.876;2022-12-26T12:34:30;12.00;99.90
27896;DHT22;15241;48.374;10.876;2022-12-26T12:39:36;11.70;99.90
27896;DHT22;15241;48.374;10.876;2022-12-26T12:44:45;11.70;99.90
27896;DHT22;15241;48.374;10.876;2022-12-26T12:49:51;11.70;99.90
27896;DHT22;15241;48.374;10.876;2022-12-26T12:55:03;11.70;99.90
27896;DHT22;15241;48.374;10.876;2022-12-26T13:00:11;11.80;99.90
27896;DHT22;15241;48.374;10.876;2022-12-26T13:05:16;11.80;99.90
27896;DHT22;15241;48.374;10.876;2022-12-26T13:10:18;12.00;99.90
27896;DHT22;15241;48.374;10.876;2022-12-26T13:15:31;12.00;99.90
27896;DHT22;15241;48.374;10.876;2022-12-26T13:20:33;11.80;99.90
27896;DHT22;15241;48.374;10.876;2022-12-26T13:25:36;11.70;99.90
27896;DHT22;15241;48.374;10.876;2022-12-26T13:30:37;11.60;99.90
27896;DHT22;15241;48.374;10.876;2022-12-26T13:41:15;11.50;99.90
27896;DHT22;15241;48.374;10.876;2022-12-26T13:46:37;11.40;99.90
27896;DHT22;15241;48.374;10.876;2022-12-26T13:51:53;11.30;99.90
27896;DHT22;15241;48.374;10.876;2022-12-26T14:08:15;11.20;99.90
27896;DHT22;15241;48.374;10.876;2022-12-26T14:18:50;11.00;99.90
27896;DHT22;15241;48.374;10.876;2022-12-26T14:23:53;11.00;99.90
27896;DHT22;15241;48.374;10.876;2022-12-26T14:28:58;10.80;99.90
27896;DHT22;15241;48.374;10.876;2022-12-26T14:34:00;10.80;99.90
27896;DHT22;15241;48.374;10.876;2022-12-26T14:39:03;10.70;99.90
27896;DHT22;15241;48.374;10.876;2022-12-26T14:44:14;10.60;99.90
27896;DHT22;15241;48.374;10.876;2022-12-26T14:49:22;10.50;99.90
27896;DHT22;15241;48.374;10.876;2022-12-26T14:54:42;10.50;99.90
27896;DHT22;15241;48.374;10.876;2022-12-26T15:05:00;10.50;99.90
27896;DHT22;15241;48.374;10.876;2022-12-26T15:10:24;10.50;99.90
27896;DHT22;15241;48.374;10.876;2022-12-26T15:15:33;10.40;99.90
27896;DHT22;15241;48.374;10.876;2022-12-26T15:32:00;10.20;99.90
27896;DHT22;15241;48.374;10.876;2022-12-26T15:37:03;10.20;99.90
27896;DHT22;15241;48.374;10.876;2022-12-26T15:42:11;10.20;99.90
27896;DHT22;15241;48.374;10.876;2022-12-26T15:47:12;10.20;99.90
27896;DHT22;15241;48.374;10.876;2022-12-26T15:52:15;10.10;99.90
27896;DHT22;15241;48.374;10.876;2022-12-26T15:57:17;10.10;99.90
27896;DHT22;15241;48.374;10.876;2022-12-26T16:02:36;10.10;99.90
27896;DHT22;15241;48.374;10.876;2022-12-26T16:07:38;10.10;99.90
27896;DHT22;15241;48.374;10.876;2022-12-26T16:17:46;10.00;99.90
27896;DHT22;15241;48.374;10.876;2022-12-26T16:22:45;10.00;99.90
27896;DHT22;15241;48.374;10.876;2022-12-26T16:27:45;9.90;99.90
27896;DHT22;15241;48.374;10.876;2022-12-26T16:32:46;9.90;99.90
27896;DHT22;15241;48.374;10.876;2022-12-26T16:37:45;9.90;99.90
27896;DHT22;15241;48.374;10.876;2022-12-26T16:42:54;9.80;99.90
27896;DHT22;15241;48.374;10.876;2022-12-26T16:47:54;9.80;99.90
27896;DHT22;15241;48.374;10.876;2022-12-26T16:53:03;9.80;99.90
27896;DHT22;15241;48.374;10.876;2022-12-26T16:58:09;9.90;99.90
27896;DHT22;15241;48.374;10.876;2022-12-26T17:03:17;10.00;99.90
27896;DHT22;15241;48.374;10.876;2022-12-26T17:08:15;9.90;99.90
27896;DHT22;15241;48.374;10.876;2022-12-26T17:13:18;9.80;99.90
27896;DHT22;15241;48.374;10.876;2022-12-26T17:18:40;9.80;99.90
27896;DHT22;15241;48.374;10.876;2022-12-26T17:23:40;9.90;99.90
27896;DHT22;15241;48.374;10.876;2022-12-26T17:28:40;9.90;99.90
27896;DHT22;15241;48.374;10.876;2022-12-26T17:33:39;9.90;99.90
27896;DHT22;15241;48.374;10.876;2022-12-26T17:38:38;9.80;99.90
27896;DHT22;15241;48.374;10.876;2022-12-26T17:43:39;9.80;99.90
27896;DHT22;15241;48.374;10.876;2022-12-26T17:48:38;9.80;99.90
27896;DHT22;15241;48.374;10.876;2022-12-26T17:53:38;9.80;99.90
27896;DHT22;15241;48.374;10.876;2022-12-26T17:58:38;9.80;99.90
27896;DHT22;15241;48.374;10.876;2022-12-26T18:03:37;9.80;99.90
27896;DHT22;15241;48.374;10.876;2022-12-26T18:08:37;9.80;99.90
27896;DHT22;15241;48.374;10.876;2022-12-26T18:13:37;9.70;99.90
27896;DHT22;15241;48.374;10.876;2022-12-26T18:18:38;9.70;99.90
27896;DHT22;15241;48.374;10.876;2022-12-26T18:23:37;9.80;99.90
27896;DHT22;15241;48.374;10.876;2022-12-26T18:28:36;9.90;99.90
27896;DHT22;15241;48.374;10.876;2022-12-26T18:33:35;9.90;99.90
27896;DHT22;15241;48.374;10.876;2022-12-26T18:38:34;9.90;99.90
27896;DHT22;15241;48.374;10.876;2022-12-26T18:43:33;9.80;99.90
27896;DHT22;15241;48.374;10.876;2022-12-26T18:48:32;9.80;99.90
27896;DHT22;15241;48.374;10.876;2022-12-26T18:53:31;9.90;99.90
27896;DHT22;15241;48.374;10.876;2022-12-26T18:58:30;9.80;99.90
27896;DHT22;15241;48.374;10.876;2022-12-26T19:03:29;9.90;99.90
27896;DHT22;15241;48.374;10.876;2022-12-26T19:08:28;10.00;99.90
27896;DHT22;15241;48.374;10.876;2022-12-26T19:13:27;9.90;99.90
27896;DHT22;15241;48.374;10.876;2022-12-26T19:18:26;10.00;99.90
27896;DHT22;15241;48.374;10.876;2022-12-26T19:23:26;10.00;99.90
27896;DHT22;15241;48.374;10.876;2022-12-26T19:28:25;10.00;99.90
27896;DHT22;15241;48.374;10.876;2022-12-26T19:33:24;10.00;99.90
27896;DHT22;15241;48.374;10.876;2022-12-26T19:38:23;10.00;99.90
27896;DHT22;15241;48.374;10.876;2022-12-26T19:43:22;10.00;99.90
27896;DHT22;15241;48.374;10.876;2022-12-26T19:48:21;10.00;99.90
27896;DHT22;15241;48.374;10.876;2022-12-26T19:53:21;10.00;99.90
27896;DHT22;15241;48.374;10.876;2022-12-26T19:58:20;10.00;99.90
27896;DHT22;15241;48.374;10.876;2022-12-26T20:03:19;10.00;99.90
27896;DHT22;15241;48.374;10.876;2022-12-26T20:08:18;10.00;99.90
27896;DHT22;15241;48.374;10.876;2022-12-26T20:13:16;10.00;99.90
27896;DHT22;15241;48.374;10.876;2022-12-26T20:18:15;10.00;99.90
27896;DHT22;15241;48.374;10.876;2022-12-26T20:23:15;9.90;99.90
27896;DHT22;15241;48.374;10.876;2022-12-26T20:28:14;9.20;99.90
27896;DHT22;15241;48.374;10.876;2022-12-26T20:33:13;9.00;99.90
27896;DHT22;15241;48.374;10.876;2022-12-26T20:38:12;8.70;99.90
27896;DHT22;15241;48.374;10.876;2022-12-26T20:43:11;8.60;99.90
27896;DHT22;15241;48.374;10.876;2022-12-26T20:53:19;8.40;99.90
27896;DHT22;15241;48.374;10.876;2022-12-26T20:58:18;8.30;99.90
27896;DHT22;15241;48.374;10.876;2022-12-26T21:03:36;8.30;99.90
27896;DHT22;15241;48.374;10.876;2022-12-26T21:08:36;8.20;99.90
27896;DHT22;15241;48.374;10.876;2022-12-26T21:13:36;8.30;99.90
27896;DHT22;15241;48.374;10.876;2022-12-26T21:18:36;8.30;99.90
27896;DHT22;15241;48.374;10.876;2022-12-26T21:23:34;8.30;99.90
27896;DHT22;15241;48.374;10.876;2022-12-26T21:28:34;8.30;99.90
27896;DHT22;15241;48.374;10.876;2022-12-26T21:33:34;8.30;99.90
27896;DHT22;15241;48.374;10.876;2022-12-26T21:38:32;8.30;99.90
27896;DHT22;15241;48.374;10.876;2022-12-26T21:43:31;8.30;99.90
27896;DHT22;15241;48.374;10.876;2022-12-26T21:48:30;8.30;99.90
27896;DHT22;15241;48.374;10.876;2022-12-26T21:53:29;8.20;99.90
27896;DHT22;15241;48.374;10.876;2022-12-26T21:58:28;8.30;99.90
27896;DHT22;15241;48.374;10.876;2022-12-26T22:03:27;8.30;99.90
27896;DHT22;15241;48.374;10.876;2022-12-26T22:08:26;8.30;99.90
27896;DHT22;15241;48.374;10.876;2022-12-26T22:13:26;8.20;99.90
27896;DHT22;15241;48.374;10.876;2022-12-26T22:18:25;8.30;99.90
27896;DHT22;15241;48.374;10.876;2022-12-26T22:23:24;8.30;99.90
27896;DHT22;15241;48.374;10.876;2022-12-26T22:28:23;8.40;99.90
27896;DHT22;15241;48.374;10.876;2022-12-26T22:33:22;8.30;99.90
27896;DHT22;15241;48.374;10.876;2022-12-26T22:38:21;8.30;99.90
27896;DHT22;15241;48.374;10.876;2022-12-26T22:43:20;8.40;99.90
27896;DHT22;15241;48.374;10.876;2022-12-26T22:48:20;8.40;99.90
27896;DHT22;15241;48.374;10.876;2022-12-26T22:53:21;8.40;99.90
27896;DHT22;15241;48.374;10.876;2022-12-26T22:58:21;8.40;99.90
27896;DHT22;15241;48.374;10.876;2022-12-26T23:03:20;8.30;99.90
27896;DHT22;15241;48.374;10.876;2022-12-26T23:08:22;8.20;99.90
27896;DHT22;15241;48.374;10.876;2022-12-26T23:13:22;8.30;99.90
27896;DHT22;15241;48.374;10.876;2022-12-26T23:18:28;8.30;99.90
27896;DHT22;15241;48.374;10.876;2022-12-26T23:23:29;8.30;99.90
27896;DHT22;15241;48.374;10.876;2022-12-26T23:28:28;8.30;99.90
27896;DHT22;15241;48.374;10.876;2022-12-26T23:33:26;8.40;99.90
27896;DHT22;15241;48.374;10.876;2022-12-26T23:38:25;8.40;99.90
27896;DHT22;15241;48.374;10.876;2022-12-26T23:43:24;8.40;99.90
27896;DHT22;15241;48.374;10.876;2022-12-26T23:48:23;8.40;99.90
27896;DHT22;15241;48.374;10.876;2022-12-26T23:53:22;8.40;99.90
27896;DHT22;15241;48.374;10.876;2022-12-26T23:58:21;8.30;99.90
